createdAt,value
2022-09-16T00:05:18.431Z,2.1
2022-09-16T00:12:50.723Z,2.3
2022-09-16T00:20:23.022Z,1.8
2022-09-16T00:27:55.264Z,2.4
2022-09-16T00:35:27.596Z,1.8
2022-09-16T00:42:59.878Z,3.5
2022-09-16T00:50:32.163Z,1.8
2022-09-16T00:58:04.451Z,2.5
2022-09-16T01:05:36.779Z,3.2
2022-09-16T01:13:09.063Z,2.6
2022-09-16T01:20:41.342Z,4.2
2022-09-16T01:28:13.620Z,4.3
2022-09-16T01:35:45.902Z,1.6
2022-09-16T01:43:18.172Z,2.9
2022-09-16T01:50:50.447Z,1.4
2022-09-16T01:58:22.737Z,3.7
2022-09-16T02:05:55.041Z,1.6
2022-09-16T02:13:27.311Z,2.4
2022-09-16T02:20:59.585Z,2.0
2022-09-16T02:28:31.849Z,2.4
2022-09-16T02:36:04.137Z,1.9
2022-09-16T02:43:36.404Z,1.2
2022-09-16T02:51:08.676Z,1.5
2022-09-16T02:58:40.976Z,1.2
2022-09-16T03:06:13.300Z,1.0
2022-09-16T03:10:32.798Z,1.7
2022-09-16T03:11:20.112Z,3.3
2022-09-16T03:12:07.369Z,2.0
2022-09-16T03:19:39.673Z,2.6
2022-09-16T03:27:11.940Z,4.5
2022-09-16T03:34:44.217Z,4.3
2022-09-16T03:42:16.499Z,1.1
2022-09-16T03:49:48.781Z,3.0
2022-09-16T03:57:21.059Z,2.2
2022-09-16T04:04:53.343Z,1.8
2022-09-16T04:12:25.646Z,2.4
2022-09-16T04:19:57.929Z,2.7
2022-09-16T04:23:57.421Z,3.9
2022-09-16T04:24:44.745Z,4.1
2022-09-16T04:25:32.020Z,2.3
2022-09-16T04:26:19.281Z,2.5
2022-09-16T04:27:06.661Z,2.8
2022-09-16T04:27:53.925Z,3.1
2022-09-16T04:28:41.180Z,5.5
2022-09-16T04:29:28.507Z,2.2
2022-09-16T04:30:15.778Z,4.0
2022-09-16T04:31:03.094Z,1.8
2022-09-16T04:31:50.424Z,7.1
2022-09-16T04:32:37.693Z,3.3
2022-09-16T04:33:25.059Z,2.7
2022-09-16T04:34:12.410Z,9.9
2022-09-16T04:34:59.734Z,10.8
2022-09-16T04:35:47.065Z,9.1
2022-09-16T04:36:34.416Z,5.0
2022-09-16T04:37:21.731Z,6.9
2022-09-16T04:38:09.074Z,4.1
2022-09-16T04:38:56.389Z,7.2
2022-09-16T04:39:43.674Z,6.0
2022-09-16T04:40:30.998Z,9.0
2022-09-16T04:41:18.371Z,14.5
2022-09-16T04:42:05.751Z,6.7
2022-09-16T04:42:53.061Z,10.9
2022-09-16T04:43:40.426Z,17.4
2022-09-16T04:44:27.759Z,7.0
2022-09-16T04:45:15.106Z,11.9
2022-09-16T04:46:02.485Z,12.8
2022-09-16T04:46:49.804Z,4.0
2022-09-16T04:47:37.232Z,13.1
2022-09-16T04:48:24.510Z,7.9
2022-09-16T04:49:11.804Z,13.3
2022-09-16T04:49:59.109Z,14.2
2022-09-16T04:50:46.449Z,15.2
2022-09-16T04:51:33.745Z,18.9
2022-09-16T04:52:21.152Z,9.4
2022-09-16T04:53:08.635Z,25.7
2022-09-16T04:53:55.958Z,27.9
2022-09-16T04:54:43.274Z,12.9
2022-09-16T04:55:30.545Z,17.6
2022-09-16T04:56:17.820Z,19.5
2022-09-16T04:57:05.084Z,14.5
2022-09-16T04:57:52.496Z,13.5
2022-09-16T04:58:39.799Z,5.5
2022-09-16T04:59:27.129Z,16.7
2022-09-16T05:00:14.396Z,9.4
2022-09-16T05:01:01.716Z,10.4
2022-09-16T05:01:49.112Z,12.2
2022-09-16T05:02:36.485Z,13.1
2022-09-16T05:03:23.833Z,20.3
2022-09-16T05:04:11.258Z,10.2
2022-09-16T05:04:58.553Z,12.9
2022-09-16T05:05:45.833Z,20.7
2022-09-16T05:06:33.126Z,13.2
2022-09-16T05:07:20.478Z,8.6
2022-09-16T05:08:07.814Z,15.9
2022-09-16T05:08:55.170Z,16.5
2022-09-16T05:09:42.509Z,19.5
2022-09-16T05:10:29.825Z,15.7
2022-09-16T05:11:17.117Z,13.4
2022-09-16T05:12:04.463Z,25.4
2022-09-16T05:12:51.808Z,30.7
2022-09-16T05:13:39.144Z,13.9
2022-09-16T05:14:26.499Z,21.5
2022-09-16T05:15:13.809Z,17.2
2022-09-16T05:16:01.141Z,25.7
2022-09-16T05:16:48.454Z,13.5
2022-09-16T05:17:51.872Z,30.3
2022-09-16T05:18:33.061Z,24.2
2022-09-16T05:19:20.431Z,25.3
2022-09-16T05:20:07.892Z,17.0
2022-09-16T05:20:55.181Z,14.9
2022-09-16T05:21:42.575Z,16.2
2022-09-16T05:22:29.833Z,31.8
2022-09-16T05:23:17.120Z,68.7
2022-09-16T05:24:04.527Z,67.4
2022-09-16T05:24:51.819Z,56.0
2022-09-16T05:25:39.109Z,49.3
2022-09-16T05:26:26.521Z,31.7
2022-09-16T05:27:13.799Z,39.1
2022-09-16T05:28:01.076Z,26.9
2022-09-16T05:28:48.479Z,31.2
2022-09-16T05:29:35.756Z,36.6
2022-09-16T05:30:26.082Z,30.4
2022-09-16T05:31:13.683Z,29.5
2022-09-16T05:32:01.033Z,27.8
2022-09-16T05:32:48.355Z,21.8
2022-09-16T05:33:35.621Z,17.6
2022-09-16T05:34:23.041Z,16.6
2022-09-16T05:35:10.317Z,15.8
2022-09-16T05:35:57.586Z,21.9
2022-09-16T05:36:44.975Z,12.1
2022-09-16T05:37:32.287Z,17.6
2022-09-16T05:38:19.581Z,14.7
2022-09-16T05:39:24.000Z,18.2
2022-09-16T05:40:04.269Z,16.6
2022-09-16T05:40:51.628Z,12.7
2022-09-16T05:41:38.910Z,10.4
2022-09-16T05:42:26.186Z,12.9
2022-09-16T05:43:13.597Z,10.0
2022-09-16T05:44:00.876Z,20.7
2022-09-16T05:44:48.577Z,12.0
2022-09-16T05:45:35.836Z,12.2
2022-09-16T05:46:23.150Z,8.8
2022-09-16T05:47:10.481Z,12.3
2022-09-16T05:47:57.884Z,12.1
2022-09-16T05:48:45.242Z,10.4
2022-09-16T05:49:32.503Z,7.9
2022-09-16T05:50:19.905Z,12.0
2022-09-16T05:51:07.168Z,6.1
2022-09-16T05:51:54.425Z,7.0
2022-09-16T05:52:41.841Z,8.6
2022-09-16T05:53:29.100Z,9.4
2022-09-16T05:54:16.393Z,9.1
2022-09-16T05:55:03.760Z,8.9
2022-09-16T05:55:51.016Z,7.6
2022-09-16T05:56:38.283Z,17.4
2022-09-16T05:57:25.706Z,8.1
2022-09-16T05:58:12.992Z,6.6
2022-09-16T05:59:00.255Z,10.9
2022-09-16T05:59:47.699Z,6.7
2022-09-16T06:00:34.975Z,10.6
2022-09-16T06:01:22.713Z,11.7
2022-09-16T06:02:10.062Z,10.6
2022-09-16T06:02:57.402Z,5.9
2022-09-16T06:03:44.748Z,13.9
2022-09-16T06:04:32.045Z,14.1
2022-09-16T06:05:19.479Z,17.1
2022-09-16T06:06:06.744Z,7.0
2022-09-16T06:06:54.078Z,20.0
2022-09-16T06:07:41.349Z,12.3
2022-09-16T06:08:28.603Z,10.3
2022-09-16T06:09:15.928Z,13.2
2022-09-16T06:10:03.197Z,6.5
2022-09-16T06:10:50.468Z,7.2
2022-09-16T06:11:37.789Z,6.7
2022-09-16T06:12:25.230Z,7.2
2022-09-16T06:13:12.489Z,13.9
2022-09-16T06:13:59.823Z,10.4
2022-09-16T06:14:47.080Z,14.4
2022-09-16T06:15:34.393Z,12.8
2022-09-16T06:16:21.749Z,9.2
2022-09-16T06:17:09.024Z,12.9
2022-09-16T06:17:56.575Z,10.6
2022-09-16T06:18:43.900Z,18.0
2022-09-16T06:19:31.208Z,9.1
2022-09-16T06:20:18.512Z,7.4
2022-09-16T06:21:05.805Z,14.1
2022-09-16T06:21:53.077Z,3.2
2022-09-16T06:22:40.345Z,6.6
2022-09-16T06:23:27.676Z,22.5
2022-09-16T06:24:14.966Z,38.1
2022-09-16T06:25:02.282Z,100.6
2022-09-16T06:25:49.621Z,84.7
2022-09-16T06:26:37.377Z,74.1
2022-09-16T06:27:24.807Z,76.7
2022-09-16T06:28:12.097Z,71.8
2022-09-16T06:28:59.396Z,54.8
2022-09-16T06:29:46.931Z,53.4
2022-09-16T06:30:34.437Z,51.7
2022-09-16T06:31:22.026Z,58.3
2022-09-16T06:32:09.329Z,44.3
2022-09-16T06:32:56.629Z,58.1
2022-09-16T06:33:43.943Z,57.7
2022-09-16T06:34:31.229Z,46.7
2022-09-16T06:35:18.545Z,43.6
2022-09-16T06:36:05.853Z,32.8
2022-09-16T06:36:53.140Z,59.7
2022-09-16T06:37:40.430Z,35.9
2022-09-16T06:38:27.773Z,34.3
2022-09-16T06:39:15.131Z,52.2
2022-09-16T06:40:02.630Z,88.7
2022-09-16T06:40:50.042Z,70.1
2022-09-16T06:41:37.315Z,70.0
2022-09-16T06:42:24.616Z,63.7
2022-09-16T06:43:11.945Z,95.2
2022-09-16T06:43:59.258Z,90.4
2022-09-16T06:44:46.537Z,100.3
2022-09-16T06:45:33.879Z,82.3
2022-09-16T06:46:21.197Z,74.2
2022-09-16T06:47:08.556Z,79.9
2022-09-16T06:47:55.909Z,82.1
2022-09-16T06:48:43.230Z,85.5
2022-09-16T06:49:30.574Z,78.3
2022-09-16T06:50:17.940Z,82.4
2022-09-16T06:51:05.222Z,83.3
2022-09-16T06:51:52.504Z,66.9
2022-09-16T06:52:39.921Z,58.4
2022-09-16T06:53:27.197Z,46.1
2022-09-16T06:54:14.500Z,43.0
2022-09-16T06:55:01.833Z,61.5
2022-09-16T06:55:49.130Z,49.6
2022-09-16T06:56:36.434Z,42.5
2022-09-16T06:57:23.889Z,49.0
2022-09-16T06:58:11.181Z,46.7
2022-09-16T06:58:58.518Z,43.2
2022-09-16T06:59:45.864Z,30.7
2022-09-16T07:00:33.161Z,49.8
2022-09-16T07:01:20.524Z,55.8
2022-09-16T07:02:07.915Z,61.7
2022-09-16T07:02:55.251Z,53.0
2022-09-16T07:03:42.577Z,48.6
2022-09-16T07:04:29.925Z,50.0
2022-09-16T07:05:17.220Z,32.2
2022-09-16T07:06:04.523Z,39.8
2022-09-16T07:07:09.175Z,29.2
2022-09-16T07:07:49.121Z,28.4
2022-09-16T07:08:36.577Z,21.7
2022-09-16T07:09:23.941Z,22.6
2022-09-16T07:10:11.225Z,28.5
2022-09-16T07:10:58.658Z,28.2
2022-09-16T07:11:45.943Z,18.4
2022-09-16T07:12:33.222Z,19.4
2022-09-16T07:13:20.633Z,12.2
2022-09-16T07:14:07.910Z,14.4
2022-09-16T07:14:55.369Z,13.8
2022-09-16T07:16:09.123Z,40.4
2022-09-16T07:16:39.969Z,71.3
2022-09-16T07:17:27.351Z,56.5
2022-09-16T07:18:14.724Z,51.5
2022-09-16T07:19:02.194Z,45.1
2022-09-16T07:19:49.561Z,49.2
2022-09-16T07:20:36.840Z,34.9
2022-09-16T07:21:24.202Z,40.8
2022-09-16T07:22:11.593Z,29.0
2022-09-16T07:22:58.896Z,17.6
2022-09-16T07:23:46.198Z,21.6
2022-09-16T07:24:33.630Z,19.6
2022-09-16T07:25:20.901Z,15.3
2022-09-16T07:26:08.177Z,25.9
2022-09-16T07:26:55.612Z,16.0
2022-09-16T07:27:43.962Z,15.9
2022-09-16T07:28:31.305Z,8.2
2022-09-16T07:29:18.674Z,8.2
2022-09-16T07:30:09.082Z,13.2
2022-09-16T07:30:56.616Z,8.9
2022-09-16T07:31:43.979Z,9.7
2022-09-16T07:32:31.293Z,3.9
2022-09-16T07:33:18.576Z,8.3
2022-09-16T07:34:06.012Z,11.6
2022-09-16T07:34:53.298Z,6.2
2022-09-16T07:35:40.577Z,4.0
2022-09-16T07:36:28.031Z,7.2
2022-09-16T07:37:15.308Z,5.6
2022-09-16T07:38:02.583Z,7.0
2022-09-16T07:38:50.006Z,4.2
2022-09-16T07:39:37.289Z,3.6
2022-09-16T07:40:29.038Z,3.4
2022-09-16T07:41:16.992Z,6.3
2022-09-16T07:42:06.238Z,8.8
2022-09-16T07:42:53.774Z,29.0
2022-09-16T07:43:41.084Z,23.9
2022-09-16T07:44:28.362Z,30.6
2022-09-16T07:45:15.672Z,28.7
2022-09-16T07:46:03.024Z,25.3
2022-09-16T07:46:50.355Z,32.3
2022-09-16T07:47:37.631Z,39.5
2022-09-16T07:48:24.981Z,33.1
2022-09-16T07:49:12.275Z,22.9
2022-09-16T07:49:59.765Z,27.7
2022-09-16T07:50:47.082Z,27.1
2022-09-16T07:51:34.359Z,28.9
2022-09-16T07:52:21.680Z,29.1
2022-09-16T07:53:08.969Z,43.0
2022-09-16T07:53:56.248Z,33.8
2022-09-16T07:54:43.529Z,34.3
2022-09-16T07:55:30.865Z,40.1
2022-09-16T07:56:18.165Z,44.3
2022-09-16T07:57:05.460Z,72.2
2022-09-16T07:57:52.775Z,62.8
2022-09-16T07:58:40.089Z,52.4
2022-09-16T07:59:27.385Z,62.0
2022-09-16T08:00:14.705Z,66.6
2022-09-16T08:01:04.562Z,51.4
2022-09-16T08:01:52.353Z,49.7
2022-09-16T08:02:39.796Z,45.3
2022-09-16T08:03:27.136Z,60.4
2022-09-16T08:04:14.481Z,70.7
2022-09-16T08:05:01.868Z,57.9
2022-09-16T08:05:49.163Z,49.2
2022-09-16T08:06:36.452Z,62.0
2022-09-16T08:07:23.913Z,63.6
2022-09-16T08:08:11.202Z,51.8
2022-09-16T08:09:02.380Z,78.5
2022-09-16T08:09:55.821Z,63.0
2022-09-16T08:10:43.612Z,54.1
2022-09-16T08:11:31.158Z,78.4
2022-09-16T08:12:18.442Z,67.9
2022-09-16T08:13:05.757Z,62.4
2022-09-16T08:13:53.060Z,58.5
2022-09-16T08:14:40.385Z,51.5
2022-09-16T08:15:27.711Z,51.2
2022-09-16T08:16:15.110Z,51.2
2022-09-16T08:17:02.424Z,56.3
2022-09-16T08:17:49.717Z,47.3
2022-09-16T08:18:37.175Z,49.8
2022-09-16T08:19:24.481Z,56.4
2022-09-16T08:20:11.787Z,39.2
2022-09-16T08:20:59.210Z,51.0
2022-09-16T08:21:46.491Z,69.0
2022-09-16T08:22:33.790Z,78.3
2022-09-16T08:23:21.224Z,86.3
2022-09-16T08:24:08.546Z,68.1
2022-09-16T08:24:55.833Z,67.0
2022-09-16T08:25:43.244Z,73.0
2022-09-16T08:26:30.513Z,62.1
2022-09-16T08:27:17.801Z,54.4
2022-09-16T08:28:05.231Z,61.8
2022-09-16T08:29:09.708Z,41.1
2022-09-16T08:29:49.848Z,50.4
2022-09-16T08:30:37.243Z,48.5
2022-09-16T08:31:24.614Z,57.0
2022-09-16T08:32:11.966Z,49.6
2022-09-16T08:32:59.366Z,48.3
2022-09-16T08:33:46.700Z,64.3
2022-09-16T08:34:34.031Z,65.7
2022-09-16T08:35:21.429Z,48.9
2022-09-16T08:36:08.722Z,51.6
2022-09-16T08:36:56.019Z,48.2
2022-09-16T08:37:46.946Z,44.0
2022-09-16T08:38:36.783Z,51.0
2022-09-16T08:39:24.233Z,37.5
2022-09-16T08:40:11.622Z,32.4
2022-09-16T08:40:59.021Z,29.1
2022-09-16T08:41:46.421Z,54.8
2022-09-16T08:42:33.740Z,41.4
2022-09-16T08:43:21.035Z,49.2
2022-09-16T08:44:08.459Z,29.4
2022-09-16T08:44:55.760Z,29.6
2022-09-16T08:45:43.220Z,25.5
2022-09-16T08:46:30.571Z,28.6
2022-09-16T08:47:17.906Z,29.7
2022-09-16T08:48:05.210Z,62.6
2022-09-16T08:48:52.770Z,37.8
2022-09-16T08:49:42.646Z,58.8
2022-09-16T08:50:33.081Z,55.9
2022-09-16T08:51:20.514Z,43.9
2022-09-16T08:52:07.832Z,58.9
2022-09-16T08:52:55.113Z,43.9
2022-09-16T08:53:42.545Z,46.9
2022-09-16T08:54:29.854Z,40.3
2022-09-16T08:55:17.154Z,44.9
2022-09-16T08:56:04.571Z,49.3
2022-09-16T08:56:51.852Z,65.3
2022-09-16T08:57:39.165Z,47.5
2022-09-16T08:58:26.574Z,51.6
2022-09-16T08:59:13.909Z,17.5
2022-09-16T09:00:01.320Z,15.1
2022-09-16T09:00:48.765Z,12.2
2022-09-16T09:01:36.266Z,18.8
2022-09-16T09:02:24.237Z,27.9
2022-09-16T09:03:11.986Z,59.4
2022-09-16T09:03:59.280Z,63.9
2022-09-16T09:04:46.860Z,79.9
2022-09-16T09:05:34.161Z,88.6
2022-09-16T09:06:21.548Z,64.8
2022-09-16T09:07:08.828Z,66.5
2022-09-16T09:07:56.118Z,80.6
2022-09-16T09:08:43.715Z,63.3
2022-09-16T09:09:31.008Z,78.0
2022-09-16T09:10:18.289Z,62.0
2022-09-16T09:11:05.883Z,58.5
2022-09-16T09:11:53.354Z,74.3
2022-09-16T09:12:42.074Z,64.8
2022-09-16T09:13:29.849Z,53.0
2022-09-16T09:14:17.161Z,38.3
2022-09-16T09:15:04.465Z,41.8
2022-09-16T09:15:51.755Z,32.9
2022-09-16T09:16:39.233Z,26.7
2022-09-16T09:17:26.563Z,28.1
2022-09-16T09:18:15.973Z,34.3
2022-09-16T09:19:03.625Z,29.1
2022-09-16T09:19:50.944Z,30.9
2022-09-16T09:20:38.229Z,18.1
2022-09-16T09:21:27.407Z,27.1
2022-09-16T09:22:14.871Z,16.0
2022-09-16T09:23:02.153Z,16.4
2022-09-16T09:23:49.425Z,14.3
2022-09-16T09:24:36.710Z,12.9
2022-09-16T09:25:24.100Z,16.1
2022-09-16T09:26:11.391Z,10.2
2022-09-16T09:26:59.096Z,11.9
2022-09-16T09:27:46.401Z,11.7
2022-09-16T09:28:33.765Z,9.0
2022-09-16T09:29:21.256Z,10.5
2022-09-16T09:30:08.618Z,9.9
2022-09-16T09:30:55.930Z,19.8
2022-09-16T09:31:43.955Z,23.5
2022-09-16T09:32:42.074Z,18.3
2022-09-16T09:33:45.375Z,16.3
2022-09-16T09:34:25.810Z,19.0
2022-09-16T09:35:13.209Z,40.5
2022-09-16T09:36:00.522Z,44.4
2022-09-16T09:36:47.831Z,24.7
2022-09-16T09:37:35.210Z,41.2
2022-09-16T09:38:22.591Z,32.1
2022-09-16T09:39:09.878Z,31.7
2022-09-16T09:39:57.514Z,22.5
2022-09-16T09:40:44.820Z,26.9
2022-09-16T09:41:32.097Z,21.6
2022-09-16T09:42:19.640Z,22.9
2022-09-16T09:43:06.919Z,21.6
2022-09-16T09:43:54.274Z,19.6
2022-09-16T09:44:41.616Z,13.9
2022-09-16T09:45:28.899Z,17.4
2022-09-16T09:46:16.262Z,11.8
2022-09-16T09:47:03.671Z,13.1
2022-09-16T09:47:50.984Z,14.2
2022-09-16T09:48:38.271Z,23.2
2022-09-16T09:49:25.685Z,19.8
2022-09-16T09:50:12.964Z,22.7
2022-09-16T09:51:00.243Z,16.8
2022-09-16T09:51:47.675Z,20.5
2022-09-16T09:52:34.958Z,30.0
2022-09-16T09:53:22.237Z,33.1
2022-09-16T09:54:09.673Z,34.1
2022-09-16T09:54:56.964Z,23.4
2022-09-16T09:55:44.454Z,15.5
2022-09-16T09:56:31.737Z,23.5
2022-09-16T09:57:19.037Z,19.5
2022-09-16T09:58:06.325Z,17.5
2022-09-16T09:58:53.765Z,15.3
2022-09-16T09:59:41.050Z,19.3
2022-09-16T10:00:28.314Z,12.1
2022-09-16T10:01:15.830Z,16.3
2022-09-16T10:02:03.210Z,12.3
2022-09-16T10:02:50.552Z,14.7
2022-09-16T10:03:38.053Z,10.0
2022-09-16T10:04:25.339Z,10.9
2022-09-16T10:05:12.609Z,8.3
2022-09-16T10:06:00.037Z,6.7
2022-09-16T10:06:47.322Z,7.2
2022-09-16T10:07:35.631Z,5.2
2022-09-16T10:08:23.119Z,9.0
2022-09-16T10:09:10.455Z,8.2
2022-09-16T10:09:57.773Z,4.7
2022-09-16T10:10:45.031Z,6.6
2022-09-16T10:11:32.442Z,3.7
2022-09-16T10:12:19.906Z,2.9
2022-09-16T10:19:52.227Z,3.5
2022-09-16T10:27:24.503Z,5.5
2022-09-16T10:34:56.793Z,5.4
2022-09-16T10:42:29.115Z,4.2
2022-09-16T10:48:18.663Z,2.9
2022-09-16T10:49:05.964Z,4.1
2022-09-16T10:49:53.462Z,5.6
2022-09-16T10:50:40.745Z,3.7
2022-09-16T10:51:28.041Z,2.9
2022-09-16T10:52:15.324Z,1.1
2022-09-16T10:53:02.618Z,2.9
2022-09-16T10:53:50.141Z,2.8
2022-09-16T10:54:37.948Z,3.8
2022-09-16T10:55:25.223Z,1.6
2022-09-16T10:56:12.801Z,1.5
2022-09-16T10:57:00.075Z,6.6
2022-09-16T10:57:47.345Z,1.5
2022-09-16T10:58:34.623Z,2.3
2022-09-16T10:59:22.109Z,5.5
2022-09-16T11:00:09.369Z,1.0
2022-09-16T11:00:56.698Z,3.5
2022-09-16T11:01:46.575Z,4.2
2022-09-16T11:02:34.628Z,2.2
2022-09-16T11:03:23.768Z,3.7
2022-09-16T11:04:58.611Z,7.9
2022-09-16T11:05:45.885Z,4.9
2022-09-16T11:06:33.158Z,13.3
2022-09-16T11:07:20.605Z,21.9
2022-09-16T11:08:07.867Z,15.6
2022-09-16T11:08:55.246Z,10.4
2022-09-16T11:09:42.581Z,14.7
2022-09-16T11:10:29.854Z,20.2
2022-09-16T11:11:17.131Z,26.2
2022-09-16T11:12:06.424Z,22.2
2022-09-16T11:12:56.189Z,17.5
2022-09-16T11:13:43.717Z,17.4
2022-09-16T11:14:31.065Z,11.8
2022-09-16T11:15:18.389Z,13.5
2022-09-16T11:16:05.761Z,9.0
2022-09-16T11:16:53.120Z,10.0
2022-09-16T11:17:40.405Z,17.1
2022-09-16T11:18:27.796Z,16.6
2022-09-16T11:19:15.060Z,8.2
2022-09-16T11:20:02.324Z,10.2
2022-09-16T11:20:49.769Z,7.0
2022-09-16T11:21:37.039Z,11.8
2022-09-16T11:22:24.312Z,7.4
2022-09-16T11:23:11.728Z,5.3
2022-09-16T11:23:59.001Z,7.5
2022-09-16T11:24:46.288Z,11.3
2022-09-16T11:25:33.668Z,9.6
2022-09-16T11:26:20.949Z,5.1
2022-09-16T11:27:08.215Z,9.6
2022-09-16T11:27:55.905Z,4.4
2022-09-16T11:28:43.181Z,3.6
2022-09-16T11:29:30.452Z,3.8
2022-09-16T11:30:17.860Z,4.1
2022-09-16T11:31:05.167Z,4.1
2022-09-16T11:31:52.547Z,5.4
2022-09-16T11:32:39.989Z,4.7
2022-09-16T11:33:27.373Z,7.5
2022-09-16T11:34:14.884Z,3.3
2022-09-16T11:35:02.173Z,8.1
2022-09-16T11:35:49.445Z,13.0
2022-09-16T11:36:36.712Z,29.2
2022-09-16T11:37:24.152Z,21.3
2022-09-16T11:38:11.826Z,19.6
2022-09-16T11:38:59.167Z,21.9
2022-09-16T11:39:46.577Z,21.3
2022-09-16T11:40:33.958Z,21.0
2022-09-16T11:41:21.259Z,11.1
2022-09-16T11:42:08.732Z,58.9
2022-09-16T11:42:56.045Z,35.6
2022-09-16T11:43:43.325Z,34.6
2022-09-16T11:44:30.727Z,22.3
2022-09-16T11:45:18.008Z,17.7
2022-09-16T11:46:05.358Z,27.6
2022-09-16T11:46:52.738Z,25.9
2022-09-16T11:47:40.987Z,18.4
2022-09-16T11:48:28.400Z,12.4
2022-09-16T11:49:15.764Z,19.8
2022-09-16T11:50:03.036Z,21.7
2022-09-16T11:50:50.306Z,18.5
2022-09-16T11:51:37.717Z,21.3
2022-09-16T11:52:25.176Z,27.1
2022-09-16T11:53:13.586Z,24.6
2022-09-16T11:54:02.223Z,26.3
2022-09-16T11:54:49.718Z,29.4
2022-09-16T11:55:37.006Z,13.9
2022-09-16T11:56:24.300Z,15.4
2022-09-16T11:57:13.271Z,14.6
2022-09-16T11:58:02.409Z,11.8
2022-09-16T11:58:49.714Z,15.9
2022-09-16T11:59:36.985Z,12.6
2022-09-16T12:00:24.260Z,19.7
2022-09-16T12:01:11.784Z,9.1
2022-09-16T12:01:59.138Z,7.6
2022-09-16T12:02:46.510Z,6.3
2022-09-16T12:03:33.865Z,7.0
2022-09-16T12:04:21.125Z,8.4
2022-09-16T12:05:08.404Z,5.1
2022-09-16T12:05:55.802Z,7.9
2022-09-16T12:06:43.064Z,4.3
2022-09-16T12:07:30.355Z,6.5
2022-09-16T12:08:17.734Z,6.9
2022-09-16T12:09:07.666Z,6.5
2022-09-16T12:09:57.723Z,8.2
2022-09-16T12:10:45.142Z,6.7
2022-09-16T12:11:32.396Z,9.5
2022-09-16T12:12:19.670Z,24.5
2022-09-16T12:13:07.071Z,26.0
2022-09-16T12:14:05.746Z,19.7
2022-09-16T12:14:51.610Z,17.2
2022-09-16T12:15:38.988Z,20.1
2022-09-16T12:16:28.199Z,14.3
2022-09-16T12:17:17.889Z,18.0
2022-09-16T12:18:05.290Z,10.4
2022-09-16T12:18:52.744Z,15.7
2022-09-16T12:19:40.018Z,10.8
2022-09-16T12:20:27.532Z,5.7
2022-09-16T12:21:14.834Z,13.5
2022-09-16T12:22:02.165Z,6.3
2022-09-16T12:22:49.545Z,9.8
2022-09-16T12:23:36.839Z,10.5
2022-09-16T12:24:24.119Z,6.1
2022-09-16T12:25:11.548Z,5.7
2022-09-16T12:25:58.817Z,10.7
2022-09-16T12:26:46.086Z,6.0
2022-09-16T12:27:33.528Z,10.6
2022-09-16T12:28:20.803Z,8.7
2022-09-16T12:29:08.102Z,3.9
2022-09-16T12:29:55.509Z,6.5
2022-09-16T12:30:42.782Z,7.6
2022-09-16T12:31:30.121Z,13.7
2022-09-16T12:32:17.489Z,3.2
2022-09-16T12:33:04.741Z,4.2
2022-09-16T12:33:52.005Z,6.5
2022-09-16T12:34:39.444Z,4.3
2022-09-16T12:35:26.708Z,6.1
2022-09-16T12:36:14.001Z,5.7
2022-09-16T12:37:01.422Z,5.5
2022-09-16T12:37:48.861Z,4.5
2022-09-16T12:38:36.176Z,4.2
2022-09-16T12:39:23.553Z,2.3
2022-09-16T12:40:10.876Z,3.1
2022-09-16T12:40:58.184Z,3.0
2022-09-16T12:41:45.658Z,2.4
2022-09-16T12:42:32.929Z,7.7
2022-09-16T12:43:20.191Z,17.3
2022-09-16T12:44:23.360Z,29.0
2022-09-16T12:45:04.999Z,23.2
2022-09-16T12:45:52.416Z,20.6
2022-09-16T12:46:39.736Z,20.5
2022-09-16T12:47:27.020Z,15.8
2022-09-16T12:48:14.675Z,22.4
2022-09-16T12:49:01.955Z,25.7
2022-09-16T12:49:49.274Z,27.9
2022-09-16T12:50:36.765Z,39.5
2022-09-16T12:51:24.127Z,26.4
2022-09-16T12:52:11.458Z,36.8
2022-09-16T12:52:58.865Z,27.0
2022-09-16T12:53:46.205Z,37.9
2022-09-16T12:54:45.836Z,40.5
2022-09-16T12:55:30.848Z,39.6
2022-09-16T12:56:18.342Z,39.8
2022-09-16T12:57:06.114Z,38.7
2022-09-16T12:57:53.395Z,23.4
2022-09-16T12:58:40.834Z,21.7
2022-09-16T12:59:28.111Z,25.4
2022-09-16T13:00:15.348Z,26.3
2022-09-16T13:01:02.835Z,20.3
2022-09-16T13:01:50.197Z,40.1
2022-09-16T13:02:37.862Z,35.5
2022-09-16T13:03:25.222Z,26.2
2022-09-16T13:04:12.533Z,41.3
2022-09-16T13:04:59.812Z,52.1
2022-09-16T13:05:47.255Z,34.4
2022-09-16T13:06:34.543Z,34.4
2022-09-16T13:07:21.824Z,38.0
2022-09-16T13:08:09.257Z,44.1
2022-09-16T13:08:56.541Z,34.9
2022-09-16T13:09:43.825Z,49.7
2022-09-16T13:10:53.781Z,39.6
2022-09-16T13:12:09.470Z,51.4
2022-09-16T13:12:44.371Z,41.6
2022-09-16T13:13:23.071Z,50.2
2022-09-16T13:14:10.478Z,35.3
2022-09-16T13:14:57.791Z,40.7
2022-09-16T13:15:45.116Z,27.3
2022-09-16T13:16:32.499Z,23.2
2022-09-16T13:17:19.821Z,30.2
2022-09-16T13:18:07.114Z,32.1
2022-09-16T13:18:54.976Z,37.6
2022-09-16T13:19:42.532Z,43.9
2022-09-16T13:20:29.823Z,40.6
2022-09-16T13:21:17.140Z,36.0
2022-09-16T13:22:04.438Z,46.6
2022-09-16T13:22:51.740Z,36.0
2022-09-16T13:23:39.162Z,46.6
2022-09-16T13:24:26.454Z,36.2
2022-09-16T13:25:13.753Z,40.0
2022-09-16T13:26:01.037Z,40.6
2022-09-16T13:26:48.437Z,43.0
2022-09-16T13:27:35.738Z,43.2
2022-09-16T13:28:23.026Z,30.7
2022-09-16T13:29:10.449Z,46.9
2022-09-16T13:29:57.876Z,54.2
2022-09-16T13:30:45.344Z,47.4
2022-09-16T13:31:34.346Z,41.0
2022-09-16T13:33:09.151Z,41.6
2022-09-16T13:33:56.461Z,40.6
2022-09-16T13:34:43.797Z,31.9
2022-09-16T13:35:31.111Z,42.4
2022-09-16T13:36:18.405Z,41.6
2022-09-16T13:37:05.716Z,28.4
2022-09-16T13:37:53.010Z,28.9
2022-09-16T13:38:40.289Z,29.6
2022-09-16T13:39:27.580Z,45.5
2022-09-16T13:40:15.388Z,32.2
2022-09-16T13:41:02.912Z,38.7
2022-09-16T13:41:50.351Z,30.4
2022-09-16T13:42:37.651Z,40.2
2022-09-16T13:43:25.215Z,40.3
2022-09-16T13:44:12.745Z,40.6
2022-09-16T13:45:00.118Z,38.6
2022-09-16T13:45:47.454Z,45.5
2022-09-16T13:46:35.019Z,47.8
2022-09-16T13:47:22.516Z,44.5
2022-09-16T13:48:10.583Z,40.7
2022-09-16T13:48:57.880Z,46.1
2022-09-16T13:49:45.219Z,37.4
2022-09-16T13:50:32.517Z,36.5
2022-09-16T13:51:19.894Z,36.6
2022-09-16T13:52:07.197Z,25.7
2022-09-16T13:52:54.496Z,36.3
2022-09-16T13:53:41.817Z,22.3
2022-09-16T13:54:29.167Z,22.6
2022-09-16T13:55:16.499Z,24.7
2022-09-16T13:56:03.776Z,25.2
2022-09-16T13:56:51.104Z,37.0
2022-09-16T13:57:38.545Z,26.4
2022-09-16T13:58:26.023Z,25.6
2022-09-16T13:59:13.315Z,25.7
2022-09-16T14:00:00.650Z,48.5
2022-09-16T14:00:48.093Z,49.2
2022-09-16T14:01:48.973Z,65.2
2022-09-16T14:02:32.805Z,45.4
2022-09-16T14:03:20.170Z,47.9
2022-09-16T14:04:07.509Z,42.1
2022-09-16T14:04:54.800Z,45.8
2022-09-16T14:05:42.233Z,47.5
2022-09-16T14:06:29.548Z,42.2
2022-09-16T14:07:16.855Z,41.4
2022-09-16T14:08:04.299Z,34.9
2022-09-16T14:08:56.610Z,32.2
2022-09-16T14:09:47.140Z,33.9
2022-09-16T14:10:35.907Z,23.6
2022-09-16T14:11:23.316Z,20.6
2022-09-16T14:12:10.684Z,25.7
2022-09-16T14:12:57.969Z,32.1
2022-09-16T14:13:45.426Z,39.2
2022-09-16T14:14:48.491Z,44.9
2022-09-16T14:15:30.079Z,51.8
2022-09-16T14:16:17.708Z,44.5
2022-09-16T14:17:05.136Z,45.5
2022-09-16T14:17:52.621Z,46.5
2022-09-16T14:18:40.341Z,45.4
2022-09-16T14:19:27.793Z,39.7
2022-09-16T14:20:15.330Z,52.1
2022-09-16T14:21:02.703Z,54.4
2022-09-16T14:21:50.173Z,44.3
2022-09-16T14:22:37.491Z,40.8
2022-09-16T14:23:24.781Z,42.3
2022-09-16T14:24:12.073Z,31.1
2022-09-16T14:25:06.826Z,39.1
2022-09-16T14:25:56.797Z,34.5
2022-09-16T14:26:44.137Z,29.4
2022-09-16T14:27:31.537Z,34.5
2022-09-16T14:28:18.854Z,24.1
2022-09-16T14:29:06.236Z,25.4
2022-09-16T14:29:53.537Z,47.9
2022-09-16T14:30:40.979Z,37.3
2022-09-16T14:31:28.335Z,41.3
2022-09-16T14:32:15.672Z,34.1
2022-09-16T14:33:02.967Z,34.2
2022-09-16T14:33:55.688Z,28.7
2022-09-16T14:34:44.302Z,26.1
2022-09-16T14:35:31.581Z,20.4
2022-09-16T14:36:18.879Z,19.9
2022-09-16T14:37:06.367Z,19.2
2022-09-16T14:37:53.682Z,22.2
2022-09-16T14:38:45.915Z,17.8
2022-09-16T14:39:33.799Z,18.0
2022-09-16T14:40:21.275Z,22.6
2022-09-16T14:41:08.598Z,13.4
2022-09-16T14:41:55.892Z,9.3
2022-09-16T14:42:43.302Z,15.3
2022-09-16T14:43:30.592Z,8.5
2022-09-16T14:44:17.902Z,16.4
2022-09-16T14:45:05.363Z,14.5
2022-09-16T14:45:52.803Z,10.6
2022-09-16T14:46:40.216Z,15.9
2022-09-16T14:47:50.660Z,7.3
2022-09-16T14:48:24.921Z,9.2
2022-09-16T14:49:12.336Z,7.6
2022-09-16T14:49:59.658Z,8.0
2022-09-16T14:50:46.941Z,10.1
2022-09-16T14:51:34.329Z,11.2
2022-09-16T14:52:21.622Z,7.4
2022-09-16T14:53:09.000Z,19.0
2022-09-16T14:54:11.668Z,4.7
2022-09-16T14:54:53.605Z,6.7
2022-09-16T14:55:41.128Z,8.4
2022-09-16T14:56:28.402Z,11.3
2022-09-16T14:57:15.684Z,6.9
2022-09-16T14:58:03.080Z,6.1
2022-09-16T14:58:50.658Z,7.1
2022-09-16T14:59:37.929Z,5.4
2022-09-16T15:00:25.352Z,2.9
2022-09-16T15:01:13.216Z,5.2
2022-09-16T15:02:01.024Z,4.7
2022-09-16T15:02:48.355Z,7.6
2022-09-16T15:03:35.745Z,6.7
2022-09-16T15:04:23.212Z,8.3
2022-09-16T15:05:10.550Z,7.5
2022-09-16T15:05:57.831Z,2.7
2022-09-16T15:06:45.118Z,3.3
2022-09-16T15:07:34.064Z,8.1
2022-09-16T15:09:08.850Z,3.9